Time;durP1;ratioP1;P1;durP2;ratioP2;P2;SDS_P1;SDS_P2;PMS_P1;PMS_P2;Temp;Humidity;BMP_temperature;BMP_pressure;BME280_temperature;BME280_humidity;BME280_pressure;Samples;Min_cycle;Max_cycle;Signal;HPM_P1;HPM_P2
2021/04/05 00:00:54;;;;;;;23.40;12.63;;;;;;;4.15;75.66;101158.34;4995148;28;20049;-55
2021/04/05 00:03:24;;;;;;;23.92;13.25;;;;;;;4.16;75.64;101152.25;5009869;28;21828;-56
2021/04/05 00:05:50;;;;;;;28.48;14.07;;;;;;;4.17;75.38;101145.28;5024128;28;20126;-56
2021/04/05 00:08:17;;;;;;;29.25;12.90;;;;;;;4.17;75.97;101147.88;4992502;28;20069;-56
2021/04/05 00:10:52;;;;;;;26.70;13.93;;;;;;;4.18;75.55;101137.41;5007954;28;20041;-56
2021/04/05 00:13:23;;;;;;;24.60;13.82;;;;;;;4.14;75.63;101135.81;5008558;28;20038;-55
2021/04/05 00:15:51;;;;;;;30.30;13.60;;;;;;;4.16;75.78;101141.84;5007949;28;20049;-55
2021/04/05 00:18:23;;;;;;;27.98;13.45;;;;;;;4.15;75.70;101136.69;5007095;28;20045;-54
2021/04/05 00:21:21;;;;;;;27.13;14.60;;;;;;;4.08;76.35;101123.03;5004641;28;20069;-55
2021/04/05 00:23:49;;;;;;;25.95;13.38;;;;;;;4.10;75.94;101121.22;5007473;28;20073;-53
2021/04/05 00:26:17;;;;;;;31.45;14.65;;;;;;;4.10;76.15;101108.19;4990975;28;20481;-56
2021/04/05 00:28:44;;;;;;;27.02;14.35;;;;;;;4.11;76.24;101104.69;5023321;28;20363;-56
2021/04/05 00:31:11;;;;;;;28.10;15.18;;;;;;;4.14;76.37;101088.13;5008901;28;20041;-54
2021/04/05 00:33:38;;;;;;;28.58;13.90;;;;;;;4.14;75.99;101082.91;5007190;28;20113;-55
2021/04/05 00:36:06;;;;;;;28.60;15.75;;;;;;;4.08;76.72;101081.38;4991599;28;20504;-53
2021/04/05 00:38:33;;;;;;;27.35;14.27;;;;;;;4.07;76.61;101087.47;5008954;28;20034;-55
2021/04/05 00:41:05;;;;;;;29.70;15.48;;;;;;;4.09;76.47;101077.88;5007892;28;20046;-54
2021/04/05 00:43:34;;;;;;;27.25;15.30;;;;;;;4.10;76.51;101065.72;5008536;28;20046;-55
2021/04/05 00:46:02;;;;;;;30.23;16.15;;;;;;;4.05;77.01;101055.47;5007358;28;20042;-53
2021/04/05 00:48:28;;;;;;;30.85;16.17;;;;;;;4.06;76.97;101060.63;5006660;28;20087;-52
2021/04/05 00:51:15;;;;;;;32.63;15.50;;;;;;;4.12;77.02;101054.34;4979802;28;20400;-55
2021/04/05 00:53:46;;;;;;;31.48;16.25;;;;;;;4.08;76.76;101052.75;5004765;28;20518;-53
2021/04/05 00:56:15;;;;;;;29.67;15.48;;;;;;;4.07;77.16;101048.44;5007933;28;20046;-53
2021/04/05 00:58:43;;;;;;;28.05;15.73;;;;;;;4.09;76.86;101048.38;4998820;28;20049;-55
2021/04/05 01:01:18;;;;;;;36.95;16.15;;;;;;;4.13;76.63;101040.44;4994692;28;20058;-55
2021/04/05 01:03:48;;;;;;;32.83;16.27;;;;;;;4.11;76.68;101033.56;5006610;28;20045;-54
2021/04/05 01:06:32;;;;;;;30.45;16.75;;;;;;;4.07;77.01;101020.66;5008052;28;20044;-52
2021/04/05 01:08:59;;;;;;;30.95;16.70;;;;;;;4.08;76.96;101018.91;5006587;28;20144;-54
2021/04/05 01:11:29;;;;;;;27.45;15.90;;;;;;;4.09;76.77;101006.72;5008478;28;20044;-55
2021/04/05 01:13:56;;;;;;;31.00;15.77;;;;;;;4.09;77.19;101004.13;5003140;28;20038;-56
2021/04/05 01:16:28;;;;;;;29.45;15.63;;;;;;;4.06;77.43;100998.16;5005626;28;20049;-54
2021/04/05 01:18:56;;;;;;;31.55;16.33;;;;;;;4.07;77.63;100992.00;5017489;28;20038;-55
2021/04/05 01:21:24;;;;;;;31.30;16.38;;;;;;;4.05;77.50;100996.44;5003637;28;20104;-55
2021/04/05 01:23:51;;;;;;;30.42;15.43;;;;;;;4.10;77.33;100988.44;5003260;28;20077;-55
2021/04/05 01:26:17;;;;;;;32.42;16.13;;;;;;;4.15;77.74;100980.50;5028179;28;20050;-54
2021/04/05 01:28:44;;;;;;;33.67;16.40;;;;;;;4.17;77.39;100982.16;5013128;28;20045;-56
2021/04/05 01:31:12;;;;;;;32.38;16.15;;;;;;;4.16;77.21;100979.56;4991632;28;20050;-54
2021/04/05 01:33:41;;;;;;;36.33;16.75;;;;;;;4.28;77.17;100978.28;5020815;28;20515;-56
2021/04/05 01:36:13;;;;;;;32.40;16.02;;;;;;;4.23;76.99;100974.09;5005891;28;20149;-56
2021/04/05 01:38:44;;;;;;;33.22;16.83;;;;;;;4.30;77.08;100966.06;4989937;28;20038;-53
2021/04/05 01:41:12;;;;;;;29.92;15.52;;;;;;;4.34;77.38;100952.88;4988382;28;20073;-55
2021/04/05 01:43:42;;;;;;;31.00;16.70;;;;;;;4.38;77.30;100935.38;5006951;28;20042;-54
2021/04/05 01:46:12;;;;;;;32.03;16.73;;;;;;;4.43;77.33;100919.56;5022006;28;20079;-54
2021/04/05 01:48:40;;;;;;;25.55;14.98;;;;;;;4.41;77.72;100904.00;5004779;28;20065;-53
2021/04/05 01:51:10;;;;;;;32.25;17.70;;;;;;;4.50;77.35;100915.81;5007668;28;20054;-54
2021/04/05 01:53:38;;;;;;;27.05;15.68;;;;;;;4.55;77.41;100909.53;5005242;28;20434;-53
2021/04/05 01:56:09;;;;;;;33.25;16.80;;;;;;;4.49;77.26;100901.97;4992572;28;20492;-54
2021/04/05 01:58:38;;;;;;;31.83;16.90;;;;;;;4.59;77.45;100904.22;5021234;28;20385;-53
2021/04/05 02:01:08;;;;;;;30.80;16.13;;;;;;;4.59;77.54;100888.56;4989316;28;20388;-52
2021/04/05 02:03:36;;;;;;;33.95;17.08;;;;;;;4.61;77.30;100892.81;5002144;28;20038;-56
2021/04/05 02:06:06;;;;;;;26.85;15.45;;;;;;;4.60;77.50;100892.88;5005046;28;20586;-52
2021/04/05 02:08:33;;;;;;;33.58;15.25;;;;;;;4.67;77.45;100894.34;5006971;28;20512;-55
2021/04/05 02:11:09;;;;;;;30.25;16.05;;;;;;;4.71;77.72;100880.28;4999172;28;20045;-51
2021/04/05 02:13:36;;;;;;;33.83;16.38;;;;;;;4.77;77.84;100882.63;5007147;28;20038;-52
2021/04/05 02:16:03;;;;;;;31.20;15.85;;;;;;;4.81;77.78;100872.94;5007384;28;20045;-54
2021/04/05 02:18:31;;;;;;;32.33;16.55;;;;;;;4.79;77.72;100869.56;5005788;28;20042;-54
2021/04/05 02:20:59;;;;;;;38.85;16.25;;;;;;;4.81;78.22;100865.94;4988955;28;20065;-53
2021/04/05 02:23:26;;;;;;;36.78;17.52;;;;;;;4.84;78.02;100858.03;5003067;28;20069;-53
2021/04/05 02:26:07;;;;;;;34.40;17.83;;;;;;;4.91;77.48;100862.06;5006543;28;20501;-55
2021/04/05 02:28:42;;;;;;;33.80;17.17;;;;;;;4.84;77.98;100850.22;5008765;28;20042;-54
2021/04/05 02:31:11;;;;;;;31.65;15.50;;;;;;;4.87;78.19;100850.06;5007667;28;20481;-55
2021/04/05 02:33:42;;;;;;;29.25;15.68;;;;;;;4.93;78.11;100842.91;5010236;28;20108;-54
2021/04/05 02:36:14;;;;;;;31.35;15.02;;;;;;;5.06;77.78;100844.09;4997497;28;20137;-53
2021/04/05 02:38:53;;;;;;;34.70;15.82;;;;;;;5.07;77.90;100832.75;5010426;28;20404;-54
2021/04/05 02:41:21;;;;;;;27.88;16.05;;;;;;;5.03;78.08;100832.03;5009691;28;20084;-54
2021/04/05 02:43:49;;;;;;;34.03;16.35;;;;;;;5.03;78.15;100818.16;5009616;28;20042;-55
2021/04/05 02:46:25;;;;;;;30.45;15.05;;;;;;;5.02;78.41;100813.88;5007328;28;20121;-54
2021/04/05 02:48:56;;;;;;;31.10;16.52;;;;;;;4.97;78.90;100808.84;5009731;28;20388;-54
2021/04/05 02:51:23;;;;;;;38.10;17.65;;;;;;;4.97;79.25;100800.19;4991643;28;20084;-55
2021/04/05 02:53:52;;;;;;;31.80;16.38;;;;;;;5.00;79.32;100805.25;5010689;28;20093;-54
2021/04/05 02:56:19;;;;;;;38.50;17.85;;;;;;;5.07;79.26;100793.63;4978985;28;20469;-55
2021/04/05 02:58:47;;;;;;;31.70;16.65;;;;;;;5.08;79.67;100792.75;4988041;28;20050;-54
2021/04/05 03:01:14;;;;;;;40.33;17.52;;;;;;;5.09;79.98;100786.63;5010050;28;20058;-54
2021/04/05 03:03:42;;;;;;;34.70;17.48;;;;;;;5.14;80.15;100778.59;5010534;28;20508;-55
2021/04/05 03:06:15;;;;;;;42.13;16.75;;;;;;;5.14;80.57;100779.44;5011079;28;20045;-55
2021/04/05 03:08:42;;;;;;;38.78;17.52;;;;;;;5.15;80.24;100765.47;5009035;28;20587;-53
2021/04/05 03:11:09;;;;;;;33.10;16.60;;;;;;;5.20;80.31;100760.06;5009209;28;20511;-55
2021/04/05 03:13:36;;;;;;;36.65;17.13;;;;;;;5.20;80.50;100758.31;5008417;28;20038;-55
2021/04/05 03:16:04;;;;;;;33.70;16.33;;;;;;;5.31;80.40;100752.63;5008897;28;20038;-55
2021/04/05 03:18:34;;;;;;;33.33;16.50;;;;;;;5.30;80.31;100748.31;5010009;28;20229;-55
2021/04/05 03:21:06;;;;;;;30.67;16.50;;;;;;;5.32;80.49;100735.22;5010499;28;20050;-55
2021/04/05 03:23:33;;;;;;;35.83;18.00;;;;;;;5.30;80.52;100732.66;5011717;28;20076;-53
2021/04/05 03:26:00;;;;;;;38.58;17.17;;;;;;;5.38;80.28;100732.31;4994869;28;20077;-56
2021/04/05 03:28:26;;;;;;;41.95;17.10;;;;;;;5.38;80.07;100719.28;5010214;28;20556;-55
2021/04/05 03:30:56;;;;;;;40.05;16.50;;;;;;;5.39;80.28;100718.38;5015705;28;20042;-52
2021/04/05 03:33:26;;;;;;;31.55;16.42;;;;;;;5.38;80.41;100712.28;4985529;28;20053;-56
2021/04/05 03:36:00;;;;;;;37.35;17.40;;;;;;;5.42;80.28;100702.59;5014329;28;20128;-55
2021/04/05 03:38:26;;;;;;;31.13;15.70;;;;;;;5.42;80.61;100699.97;5014232;28;20048;-55
2021/04/05 03:40:57;;;;;;;31.63;16.05;;;;;;;5.46;80.60;100703.28;5015476;28;20053;-55
2021/04/05 03:43:29;;;;;;;35.42;17.23;;;;;;;5.45;80.80;100696.38;4997804;28;20046;-55
2021/04/05 03:45:59;;;;;;;40.30;17.33;;;;;;;5.43;80.64;100683.41;4998167;28;20057;-54
2021/04/05 03:49:01;;;;;;;42.10;17.38;;;;;;;5.45;80.45;100678.97;4997880;28;20045;-52
2021/04/05 03:51:33;;;;;;;41.42;16.77;;;;;;;5.48;80.71;100678.84;5012041;28;20061;-54
2021/04/05 03:54:08;;;;;;;38.03;16.35;;;;;;;5.46;80.97;100678.03;5013356;28;20096;-55
2021/04/05 03:56:43;;;;;;;42.05;17.85;;;;;;;5.48;80.82;100678.84;4997382;28;20045;-52
2021/04/05 03:59:11;;;;;;;35.67;17.80;;;;;;;5.50;81.03;100663.94;4997664;28;20058;-54
2021/04/05 04:01:52;;;;;;;39.47;18.50;;;;;;;5.50;81.03;100656.13;5013824;28;20088;-54
2021/04/05 04:04:28;;;;;;;33.17;16.75;;;;;;;5.50;80.84;100657.91;5014255;28;20140;-55
2021/04/05 04:07:22;;;;;;;34.22;17.63;;;;;;;5.52;81.20;100656.91;5014251;28;20507;-55
2021/04/05 04:09:52;;;;;;;33.85;15.88;;;;;;;5.53;81.32;100655.97;5014075;28;20094;-55
2021/04/05 04:12:20;;;;;;;36.03;16.27;;;;;;;5.51;81.23;100651.75;4997240;28;20061;-56
2021/04/05 04:14:47;;;;;;;33.58;17.23;;;;;;;5.54;81.18;100652.44;4997117;28;20052;-54
2021/04/05 04:17:14;;;;;;;43.85;18.67;;;;;;;5.48;81.68;100647.53;4997441;28;20062;-52
2021/04/05 04:19:43;;;;;;;35.45;18.10;;;;;;;5.47;82.05;100648.44;5029542;28;20117;-55
2021/04/05 04:22:12;;;;;;;36.50;17.27;;;;;;;5.51;81.81;100644.78;5013402;28;20046;-54
2021/04/05 04:24:40;;;;;;;40.25;17.10;;;;;;;5.57;81.55;100638.41;5013284;28;20061;-54
2021/04/05 04:27:13;;;;;;;36.08;17.90;;;;;;;5.53;81.72;100632.50;5014800;28;20066;-54
2021/04/05 04:29:40;;;;;;;44.45;18.25;;;;;;;5.58;81.53;100627.91;5014742;28;20590;-54
2021/04/05 04:32:07;;;;;;;36.13;17.40;;;;;;;5.64;81.23;100618.94;5013157;28;20049;-52
2021/04/05 04:34:34;;;;;;;34.95;18.10;;;;;;;5.70;81.50;100618.66;4996093;28;20495;-53
2021/04/05 04:37:02;;;;;;;41.38;18.17;;;;;;;5.67;81.36;100615.34;5013407;28;20050;-53
2021/04/05 04:39:29;;;;;;;35.65;16.67;;;;;;;5.65;81.81;100606.75;4996614;28;20049;-55
2021/04/05 04:41:59;;;;;;;33.88;17.73;;;;;;;5.64;81.68;100607.66;5014366;28;20069;-56
2021/04/05 04:44:25;;;;;;;33.55;17.65;;;;;;;5.62;82.44;100601.66;5013187;28;20380;-53
2021/04/05 04:46:52;;;;;;;42.45;18.25;;;;;;;5.62;82.72;100597.31;5012773;28;20042;-54
2021/04/05 04:49:18;;;;;;;33.47;17.48;;;;;;;5.66;82.44;100588.41;4996987;28;20046;-55
2021/04/05 04:51:45;;;;;;;37.97;17.92;;;;;;;5.69;82.80;100582.19;5012614;28;20108;-55
2021/04/05 04:54:14;;;;;;;35.13;17.17;;;;;;;5.72;83.05;100579.44;5012848;28;20053;-55
2021/04/05 04:56:41;;;;;;;40.65;17.58;;;;;;;5.72;83.37;100574.22;5012849;28;20417;-53
2021/04/05 04:59:09;;;;;;;42.63;18.45;;;;;;;5.72;83.13;100574.22;5012389;28;20100;-54
2021/04/05 05:01:37;;;;;;;36.63;18.20;;;;;;;5.73;83.54;100562.84;5029171;28;20057;-55
2021/04/05 05:04:08;;;;;;;36.13;17.45;;;;;;;5.74;82.90;100548.91;5013696;28;20511;-55
2021/04/05 05:06:38;;;;;;;39.58;17.13;;;;;;;5.76;83.18;100549.66;5012579;28;20115;-52
2021/04/05 05:09:05;;;;;;;37.40;17.50;;;;;;;5.75;83.29;100556.66;5029142;28;20080;-54
2021/04/05 05:11:32;;;;;;;32.03;15.40;;;;;;;5.82;82.85;100546.75;5013687;28;20046;-53
2021/04/05 05:13:58;;;;;;;34.97;17.23;;;;;;;5.81;83.34;100542.44;4996117;28;20046;-54
2021/04/05 05:16:25;;;;;;;39.30;16.10;;;;;;;5.87;83.23;100536.06;5012600;28;20065;-54
2021/04/05 05:18:54;;;;;;;30.35;16.00;;;;;;;5.92;82.99;100534.06;5013492;28;20058;-54
2021/04/05 05:21:41;;;;;;;27.00;15.68;;;;;;;5.99;82.77;100538.09;5012572;28;20842;-53
2021/04/05 05:24:08;;;;;;;27.48;14.68;;;;;;;6.02;82.47;100531.88;5012272;28;20125;-55
2021/04/05 05:26:36;;;;;;;31.30;14.73;;;;;;;6.00;83.05;100521.50;4979936;28;20548;-55
2021/04/05 05:29:06;;;;;;;28.45;14.95;;;;;;;6.00;82.59;100523.25;4995760;28;20057;-53
2021/04/05 05:31:41;;;;;;;34.28;15.75;;;;;;;5.99;82.69;100511.97;5013270;28;20064;-54
2021/04/05 05:34:21;;;;;;;29.58;14.57;;;;;;;6.01;83.19;100498.84;5028194;28;20050;-53
2021/04/05 05:36:48;;;;;;;36.00;15.18;;;;;;;6.05;82.60;100492.53;5028410;28;20496;-54
2021/04/05 05:39:16;;;;;;;31.33;15.40;;;;;;;6.09;82.89;100491.47;5012196;28;20135;-55
2021/04/05 05:41:54;;;;;;;26.77;13.75;;;;;;;6.09;82.62;100492.31;5011814;28;20064;-55
2021/04/05 05:44:44;;;;;;;26.33;14.15;;;;;;;6.10;82.24;100493.16;5012824;28;20069;-50
2021/04/05 05:47:21;;;;;;;24.75;13.23;;;;;;;6.15;82.43;100512.03;5010929;28;20077;-54
2021/04/05 05:49:58;;;;;;;18.00;6.50;;;;;;;6.00;77.95;100565.88;5012519;28;20100;-55
2021/04/05 05:52:39;;;;;;;13.15;3.60;;;;;;;5.74;78.60;100580.22;5010755;28;20120;-55
2021/04/05 05:55:18;;;;;;;11.00;3.13;;;;;;;5.69;78.72;100563.94;5011322;28;20054;-54
2021/04/05 05:58:01;;;;;;;7.43;2.63;;;;;;;5.45;79.31;100579.84;5011170;28;20161;-53
2021/04/05 06:00:33;;;;;;;4.03;1.77;;;;;;;5.24;79.97;100587.75;5020701;28;20052;-55
2021/04/05 06:03:14;;;;;;;5.05;1.80;;;;;;;5.22;80.25;100588.75;5011751;28;20046;-53
2021/04/05 06:06:10;;;;;;;5.85;1.48;;;;;;;5.20;81.69;100582.78;5012398;28;20104;-54
2021/04/05 06:09:21;;;;;;;6.68;1.83;;;;;;;5.16;81.59;100574.25;4990447;28;20066;-54
2021/04/05 06:12:01;;;;;;;8.20;1.77;;;;;;;5.19;81.96;100574.09;4988989;28;20496;-54
2021/04/05 06:14:40;;;;;;;5.93;1.48;;;;;;;5.13;81.52;100574.41;5011118;28;20084;-51
2021/04/05 06:17:18;;;;;;;2.53;1.02;;;;;;;5.05;80.85;100585.16;5027855;28;20440;-54
2021/04/05 06:19:47;;;;;;;3.45;1.00;;;;;;;4.96;81.04;100587.34;5010986;28;20538;-53
2021/04/05 06:22:55;;;;;;;7.47;1.20;;;;;;;4.97;81.10;100602.09;5012374;28;20045;-53
2021/04/05 06:25:38;;;;;;;6.00;0.93;;;;;;;4.94;81.00;100594.41;5010992;28;20050;-54
2021/04/05 06:28:10;;;;;;;4.65;1.10;;;;;;;4.76;80.55;100615.16;4994994;28;20503;-54
2021/04/05 06:31:06;;;;;;;2.60;1.00;;;;;;;4.74;80.77;100614.38;5011249;28;20465;-53
2021/04/05 06:33:37;;;;;;;5.10;1.10;;;;;;;4.72;80.42;100624.88;5012318;28;20131;-53
2021/04/05 06:36:12;;;;;;;8.10;1.10;;;;;;;4.65;80.29;100633.00;5010893;28;20516;-53
2021/04/05 06:39:03;;;;;;;2.20;0.90;;;;;;;4.67;81.33;100631.19;5027244;28;20046;-55
2021/04/05 06:41:36;;;;;;;2.78;1.02;;;;;;;4.64;80.30;100636.56;5008900;28;20058;-54
2021/04/05 06:44:22;;;;;;;3.83;1.13;;;;;;;4.56;80.93;100648.13;5027028;28;20074;-53
2021/04/05 06:46:54;;;;;;;2.35;1.20;;;;;;;4.46;80.80;100643.38;5012012;28;20092;-53
2021/04/05 06:49:48;;;;;;;7.10;1.10;;;;;;;4.50;80.45;100638.00;5027518;28;20038;-54
2021/04/05 06:52:20;;;;;;;5.75;1.35;;;;;;;4.44;80.03;100645.22;5012192;28;20046;-54
2021/04/05 06:54:59;;;;;;;;;;;;;;;4.46;79.17;100649.47;5010360;28;20046;-53
2021/04/05 06:57:48;;;;;;;3.80;1.17;;;;;;;4.53;79.14;100656.09;5010440;28;19921;-53
2021/04/05 07:00:21;;;;;;;7.47;1.20;;;;;;;4.51;77.20;100665.75;4993610;28;20046;-55
2021/04/05 07:03:15;;;;;;;8.18;1.40;;;;;;;4.49;77.40;100664.94;5011021;28;20416;-55
2021/04/05 07:06:15;;;;;;;7.50;1.23;;;;;;;4.54;79.12;100662.13;5014944;28;20058;-54
2021/04/05 07:09:10;;;;;;;6.30;1.10;;;;;;;4.61;77.90;100660.97;5015368;28;20611;-55
2021/04/05 07:11:45;;;;;;;4.88;1.50;;;;;;;4.51;77.78;100665.75;5015948;28;20109;-52
2021/04/05 07:14:36;;;;;;;9.15;1.70;;;;;;;4.47;79.42;100685.00;5014137;28;20042;-53
2021/04/05 07:17:19;;;;;;;4.15;1.23;;;;;;;4.48;80.58;100686.69;5014088;28;20100;-53
2021/04/05 07:20:02;;;;;;;7.60;1.40;;;;;;;4.50;80.15;100703.09;5014626;28;20107;-54
2021/04/05 07:22:32;;;;;;;;;;;;;;;4.28;78.85;100713.56;5014953;28;20547;-54
2021/04/05 07:25:03;;;;;;;2.50;0.65;;;;;;;4.04;78.47;100712.81;4998095;28;20393;-52
2021/04/05 07:28:05;;;;;;;6.25;0.90;;;;;;;4.11;79.82;100703.81;5014811;28;20059;-53
2021/04/05 07:30:41;;;;;;;4.72;1.48;;;;;;;4.14;78.72;100703.69;4939292;29;20057;-54
2021/04/05 07:33:32;;;;;;;6.78;0.90;;;;;;;4.12;79.24;100710.72;5006577;28;20455;-53
2021/04/05 07:36:12;;;;;;;7.47;0.90;;;;;;;4.05;78.38;100712.72;5014354;28;20535;-53
2021/04/05 07:38:47;;;;;;;5.00;0.98;;;;;;;3.93;77.03;100721.03;5008309;28;20141;-54
2021/04/05 07:41:24;;;;;;;4.82;0.98;;;;;;;3.88;77.75;100708.19;5015488;28;20132;-52
2021/04/05 07:44:07;;;;;;;7.35;0.88;;;;;;;3.83;78.31;100732.69;5011361;28;20515;-53
2021/04/05 07:46:38;;;;;;;4.05;0.90;;;;;;;3.76;77.63;100745.09;4994978;28;20050;-54
2021/04/05 07:49:18;;;;;;;9.05;1.17;;;;;;;3.83;78.63;100761.31;4994474;28;20129;-54
2021/04/05 07:52:04;;;;;;;9.45;1.30;;;;;;;3.73;77.45;100771.22;4996058;28;20138;-54
2021/04/05 07:54:35;;;;;;;14.50;2.05;;;;;;;3.53;76.98;100775.44;4993374;28;20129;-53
2021/04/05 07:57:22;;;;;;;9.27;1.67;;;;;;;3.40;78.49;100770.75;5013971;28;20102;-56
2021/04/05 08:00:08;;;;;;;7.70;1.60;;;;;;;3.34;80.49;100780.44;5013850;28;20530;-55
2021/04/05 08:03:17;;;;;;;14.30;2.10;;;;;;;3.12;77.75;100782.09;5015065;28;20140;-54
2021/04/05 08:06:05;;;;;;;19.50;2.50;;;;;;;3.19;79.14;100791.38;5005567;28;20069;-55
2021/04/05 08:08:47;;;;;;;15.65;2.67;;;;;;;3.25;78.11;100795.53;5015174;28;20500;-53
2021/04/05 08:11:42;;;;;;;17.45;2.45;;;;;;;3.32;78.08;100802.19;5013940;28;20591;-54
2021/04/05 08:14:36;;;;;;;20.83;3.35;;;;;;;3.24;76.21;100799.03;5014485;28;20119;-52
2021/04/05 08:17:50;;;;;;;16.67;3.00;;;;;;;3.19;74.80;100799.16;5014856;28;20531;-54
2021/04/05 08:20:32;;;;;;;17.52;1.98;;;;;;;3.29;74.52;100787.56;4983690;28;20546;-54
2021/04/05 08:23:49;;;;;;;20.23;2.60;;;;;;;3.39;73.83;100803.66;5014274;28;20058;-55
2021/04/05 08:26:36;;;;;;;15.77;3.42;;;;;;;3.45;72.97;100806.06;4994521;28;20080;-53
2021/04/05 08:29:15;;;;;;;16.40;2.28;;;;;;;3.58;74.39;100805.63;5013563;28;20400;-54
2021/04/05 08:32:01;;;;;;;17.58;3.50;;;;;;;3.57;72.65;100814.31;5013054;28;20121;-54
2021/04/05 08:34:46;;;;;;;15.40;2.63;;;;;;;3.55;70.92;100815.22;5014386;28;20062;-57
2021/04/05 08:37:21;;;;;;;12.07;2.13;;;;;;;3.73;70.14;100828.47;5013243;28;20444;-55
2021/04/05 08:40:07;;;;;;;12.32;2.08;;;;;;;3.71;66.80;100819.88;5012796;28;20109;-53
2021/04/05 08:43:10;;;;;;;12.40;2.10;;;;;;;3.79;69.37;100828.25;5014335;28;20133;-54
2021/04/05 08:45:45;;;;;;;13.13;2.10;;;;;;;4.00;67.03;100825.75;5014225;28;20113;-54
2021/04/05 08:48:21;;;;;;;9.90;1.80;;;;;;;4.02;62.75;100835.19;5012911;28;20042;-56
2021/04/05 08:50:57;;;;;;;6.32;1.40;;;;;;;3.95;62.09;100836.31;5013645;28;20046;-55
2021/04/05 08:53:24;;;;;;;9.75;1.80;;;;;;;4.04;64.43;100840.34;4994804;28;20088;-56
2021/04/05 08:55:52;;;;;;;15.27;2.20;;;;;;;4.19;65.57;100839.75;5012475;28;20042;-52
2021/04/05 08:58:29;;;;;;;13.85;2.97;;;;;;;4.20;63.89;100846.66;5012922;28;20081;-54
2021/04/05 09:00:57;;;;;;;7.38;2.13;;;;;;;4.31;65.06;100850.56;4993222;28;20062;-53
2021/04/05 09:03:28;;;;;;;9.00;2.97;;;;;;;4.40;64.98;100842.41;4993672;28;20065;-54
2021/04/05 09:05:55;;;;;;;10.13;2.70;;;;;;;4.49;64.29;100836.84;4996126;28;20411;-55
2021/04/05 09:08:23;;;;;;;15.23;3.15;;;;;;;4.48;62.79;100836.91;5012133;28;20448;-55
2021/04/05 09:11:05;;;;;;;8.18;2.17;;;;;;;4.53;60.15;100830.59;4996497;28;20038;-55
2021/04/05 09:13:38;;;;;;;4.50;1.23;;;;;;;4.43;59.15;100854.47;5013918;28;20049;-56
2021/04/05 09:16:22;;;;;;;8.55;1.45;;;;;;;4.25;61.16;100850.81;4980689;28;20441;-56
2021/04/05 09:19:41;;;;;;;4.15;1.20;;;;;;;4.09;65.99;100881.78;5013675;28;20041;-56
2021/04/05 09:22:13;;;;;;;5.68;1.60;;;;;;;3.43;69.41;100905.81;4958505;28;20073;-55
2021/04/05 09:25:08;;;;;;;6.05;1.70;;;;;;;3.38;69.50;100901.63;4998224;28;20042;-55
2021/04/05 09:28:02;;;;;;;3.42;0.80;;;;;;;3.51;66.98;100917.66;5012679;28;20420;-55
2021/04/05 09:31:02;;;;;;;2.85;0.88;;;;;;;3.72;68.59;100918.66;5012818;28;20563;-54
2021/04/05 09:34:07;;;;;;;3.75;0.80;;;;;;;3.71;68.96;100926.53;5011482;28;20042;-54
2021/04/05 09:36:49;;;;;;;3.20;0.80;;;;;;;3.56;68.67;100946.13;5011829;28;20395;-55
2021/04/05 09:39:34;;;;;;;2.83;0.90;;;;;;;3.46;71.47;100944.72;5013688;28;20515;-55
2021/04/05 09:42:35;;;;;;;2.47;0.60;;;;;;;2.63;74.14;100980.25;5012868;28;20073;-54
2021/04/05 09:45:40;;;;;;;4.03;1.02;;;;;;;2.47;70.63;100950.44;5012265;28;20511;-54
2021/04/05 09:48:33;;;;;;;3.58;0.80;;;;;;;2.39;70.13;100949.78;4991644;28;20170;-55
2021/04/05 09:51:37;;;;;;;4.07;0.90;;;;;;;2.56;71.46;100934.56;4995851;28;20157;-54
2021/04/05 09:54:47;;;;;;;4.43;0.63;;;;;;;2.77;73.62;100951.25;5027312;28;20052;-53
2021/04/05 09:57:26;;;;;;;2.53;0.90;;;;;;;2.77;72.92;100940.00;4989875;28;20054;-53
2021/04/05 09:59:57;;;;;;;6.50;1.10;;;;;;;2.86;70.40;100971.75;5011844;28;20049;-54
2021/04/05 10:02:43;;;;;;;3.42;0.90;;;;;;;2.99;71.51;100956.63;4995491;28;20048;-55
2021/04/05 10:05:16;;;;;;;2.75;0.93;;;;;;;3.10;69.75;100960.63;5012601;28;20100;-55
2021/04/05 10:07:45;;;;;;;6.53;1.30;;;;;;;3.10;70.08;100960.63;5011626;28;20057;-56
2021/04/05 10:10:13;;;;;;;8.10;1.60;;;;;;;3.38;69.69;100951.03;5011496;28;20045;-55
2021/04/05 10:12:41;;;;;;;6.05;1.33;;;;;;;3.33;66.30;100950.34;5011565;28;20508;-56
2021/04/05 10:15:12;;;;;;;10.23;1.40;;;;;;;3.25;64.43;100974.91;5011416;28;20041;-55
2021/04/05 10:17:43;;;;;;;10.88;1.80;;;;;;;3.32;63.24;100958.19;4995479;28;20453;-56
2021/04/05 10:20:11;;;;;;;8.80;1.45;;;;;;;3.29;65.04;100974.72;5011462;28;20052;-54
2021/04/05 10:22:43;;;;;;;7.80;1.45;;;;;;;3.38;60.78;100968.38;5011817;28;20566;-57
2021/04/05 10:25:13;;;;;;;9.38;1.80;;;;;;;3.80;63.33;100985.19;4995228;28;20389;-56
2021/04/05 10:27:40;;;;;;;7.75;1.23;;;;;;;4.07;60.71;100985.97;5011115;28;20033;-55
2021/04/05 10:30:13;;;;;;;8.35;1.45;;;;;;;4.08;60.52;101003.28;4991653;28;20497;-54
2021/04/05 10:32:40;;;;;;;8.10;1.50;;;;;;;3.87;59.67;100997.06;4993151;28;20049;-56
2021/04/05 10:35:10;;;;;;;10.27;1.40;;;;;;;3.89;62.30;100998.72;4991386;28;20055;-54
2021/04/05 10:37:45;;;;;;;8.05;1.65;;;;;;;3.94;61.65;101002.91;4995547;28;20143;-56
2021/04/05 10:40:14;;;;;;;8.25;1.98;;;;;;;3.93;61.36;101009.88;5010504;28;20045;-57
2021/04/05 10:42:48;;;;;;;13.57;1.92;;;;;;;3.97;62.67;101010.63;4997022;28;20055;-56
2021/04/05 10:45:21;;;;;;;7.65;2.03;;;;;;;4.10;58.89;101031.88;4991310;28;20117;-55
2021/04/05 10:47:50;;;;;;;;;;;;;;;4.14;57.43;101034.28;4992721;28;20065;-56
2021/04/05 10:50:20;;;;;;;9.38;1.30;;;;;;;3.97;55.99;101041.88;5011449;28;19925;-56
2021/04/05 10:52:49;;;;;;;9.43;1.50;;;;;;;3.51;50.46;101026.03;5011264;28;20408;-56
2021/04/05 10:55:21;;;;;;;10.65;1.30;;;;;;;3.44;48.80;101025.38;5010616;28;20440;-57
2021/04/05 10:57:56;;;;;;;8.82;2.03;;;;;;;3.32;49.02;101012.78;5010680;28;20152;-57
2021/04/05 11:00:36;;;;;;;9.73;1.98;;;;;;;3.93;51.37;101028.09;4994842;28;20401;-56
2021/04/05 11:03:17;;;;;;;9.77;2.00;;;;;;;4.06;50.75;101026.78;4994917;28;20045;-56
2021/04/05 11:05:46;;;;;;;9.65;1.95;;;;;;;3.87;48.90;101033.50;5011052;28;20077;-55
2021/04/05 11:08:25;;;;;;;10.68;1.80;;;;;;;4.21;47.74;101034.94;5012075;28;20050;-55
2021/04/05 11:11:07;;;;;;;9.60;2.13;;;;;;;4.76;48.83;101037.28;5012127;28;20049;-54
2021/04/05 11:13:37;;;;;;;14.65;2.60;;;;;;;5.46;48.12;101034.59;5010907;28;20053;-57
2021/04/05 11:16:16;;;;;;;9.07;2.00;;;;;;;5.40;47.41;101075.66;5010822;28;20551;-57
2021/04/05 11:18:54;;;;;;;8.10;1.35;;;;;;;4.08;59.11;101104.81;5027080;28;20044;-54
2021/04/05 11:21:33;;;;;;;8.07;1.27;;;;;;;3.22;64.21;101108.41;5011545;28;20104;-54
2021/04/05 11:24:01;;;;;;;8.95;1.33;;;;;;;2.80;62.35;101116.56;5025612;28;20037;-53
2021/04/05 11:26:32;;;;;;;6.53;1.65;;;;;;;2.52;64.64;101107.78;4993962;28;20092;-55
2021/04/05 11:29:03;;;;;;;16.55;7.50;;;;;;;2.45;64.87;101115.78;5010385;28;20038;-56
2021/04/05 11:31:45;;;;;;;12.68;5.03;;;;;;;2.58;63.52;101105.91;4994689;28;20038;-56
2021/04/05 11:34:24;;;;;;;10.60;1.63;;;;;;;2.41;61.20;101108.97;5010424;28;20504;-55
2021/04/05 11:36:57;;;;;;;5.85;1.00;;;;;;;2.37;60.64;101097.81;5010852;28;20129;-56
2021/04/05 11:39:30;;;;;;;;;;;;;;;2.38;60.49;101099.50;4994965;28;20392;-56
2021/04/05 11:41:57;;;;;;;;;;;;;;;2.98;60.48;101092.63;4995185;28;19921;-56
2021/04/05 11:44:38;;;;;;;12.68;4.47;;;;;;;3.46;59.04;101078.19;5010633;28;19936;-56
2021/04/05 11:47:08;;;;;;;13.30;4.60;;;;;;;4.05;58.58;101078.91;5010852;28;20045;-57
2021/04/05 11:49:35;;;;;;;11.38;1.67;;;;;;;4.48;58.35;101069.56;5010847;28;20081;-57
2021/04/05 11:52:26;;;;;;;10.00;1.83;;;;;;;4.78;54.12;101069.34;5014355;28;20049;-56
2021/04/05 11:54:58;;;;;;;5.90;1.30;;;;;;;4.83;47.03;101063.97;5014972;28;20357;-57
2021/04/05 11:57:52;;;;;;;10.20;1.33;;;;;;;5.37;51.22;101054.03;4998199;28;20485;-57
2021/04/05 12:00:25;;;;;;;10.18;1.52;;;;;;;5.93;51.11;101061.31;5007128;28;20086;-55
2021/04/05 12:03:02;;;;;;;10.32;1.45;;;;;;;5.32;46.18;101069.06;5013669;28;20065;-56